sensor_id;sensor_type;location;lat;lon;timestamp;P1;durP1;ratioP1;P2;durP2;ratioP2
47715;SDS011;33476;50.984;3.538;2023-04-10T00:02:17;12.00;;;6.68;;
47715;SDS011;33476;50.984;3.538;2023-04-10T00:04:43;12.63;;;6.75;;
47715;SDS011;33476;50.984;3.538;2023-04-10T00:07:08;10.45;;;6.40;;
47715;SDS011;33476;50.984;3.538;2023-04-10T00:09:34;11.60;;;6.38;;
47715;SDS011;33476;50.984;3.538;2023-04-10T00:12:00;11.48;;;6.45;;
47715;SDS011;33476;50.984;3.538;2023-04-10T00:14:25;9.57;;;5.70;;
47715;SDS011;33476;50.984;3.538;2023-04-10T00:16:50;11.93;;;6.10;;
47715;SDS011;33476;50.984;3.538;2023-04-10T00:19:16;11.15;;;6.15;;
47715;SDS011;33476;50.984;3.538;2023-04-10T00:21:41;12.82;;;5.57;;
47715;SDS011;33476;50.984;3.538;2023-04-10T00:24:07;10.80;;;5.45;;
47715;SDS011;33476;50.984;3.538;2023-04-10T00:26:33;8.02;;;5.15;;
47715;SDS011;33476;50.984;3.538;2023-04-10T00:28:59;10.95;;;5.53;;
47715;SDS011;33476;50.984;3.538;2023-04-10T00:31:24;10.70;;;5.53;;
47715;SDS011;33476;50.984;3.538;2023-04-10T00:33:49;9.00;;;4.95;;
47715;SDS011;33476;50.984;3.538;2023-04-10T00:36:16;8.68;;;5.28;;
47715;SDS011;33476;50.984;3.538;2023-04-10T00:38:43;8.32;;;4.90;;
47715;SDS011;33476;50.984;3.538;2023-04-10T00:41:08;9.23;;;4.90;;
47715;SDS011;33476;50.984;3.538;2023-04-10T00:43:33;10.35;;;4.93;;
47715;SDS011;33476;50.984;3.538;2023-04-10T00:45:58;6.70;;;4.25;;
47715;SDS011;33476;50.984;3.538;2023-04-10T00:48:25;9.27;;;4.65;;
47715;SDS011;33476;50.984;3.538;2023-04-10T00:50:50;9.90;;;4.35;;
47715;SDS011;33476;50.984;3.538;2023-04-10T00:53:16;7.85;;;4.82;;
47715;SDS011;33476;50.984;3.538;2023-04-10T00:55:41;11.75;;;4.68;;
47715;SDS011;33476;50.984;3.538;2023-04-10T00:58:07;9.18;;;4.82;;
47715;SDS011;33476;50.984;3.538;2023-04-10T01:00:35;10.05;;;5.10;;
47715;SDS011;33476;50.984;3.538;2023-04-10T01:03:00;7.97;;;4.20;;
47715;SDS011;33476;50.984;3.538;2023-04-10T01:05:27;7.90;;;4.45;;
47715;SDS011;33476;50.984;3.538;2023-04-10T01:08:13;6.57;;;4.05;;
47715;SDS011;33476;50.984;3.538;2023-04-10T01:10:51;11.05;;;4.53;;
47715;SDS011;33476;50.984;3.538;2023-04-10T01:13:56;6.40;;;4.00;;
47715;SDS011;33476;50.984;3.538;2023-04-10T01:16:37;5.60;;;4.10;;
47715;SDS011;33476;50.984;3.538;2023-04-10T01:27:57;7.10;;;4.25;;
47715;SDS011;33476;50.984;3.538;2023-04-10T01:30:26;9.75;;;4.57;;
47715;SDS011;33476;50.984;3.538;2023-04-10T01:32:53;8.20;;;4.30;;
47715;SDS011;33476;50.984;3.538;2023-04-10T01:35:22;4.72;;;2.78;;
47715;SDS011;33476;50.984;3.538;2023-04-10T01:37:49;6.68;;;3.83;;
47715;SDS011;33476;50.984;3.538;2023-04-10T01:40:16;6.97;;;4.32;;
47715;SDS011;33476;50.984;3.538;2023-04-10T01:42:49;6.82;;;3.63;;
47715;SDS011;33476;50.984;3.538;2023-04-10T01:45:21;5.90;;;3.63;;
47715;SDS011;33476;50.984;3.538;2023-04-10T01:47:49;6.30;;;3.42;;
47715;SDS011;33476;50.984;3.538;2023-04-10T01:50:16;5.55;;;3.55;;
47715;SDS011;33476;50.984;3.538;2023-04-10T01:52:42;5.82;;;3.80;;
47715;SDS011;33476;50.984;3.538;2023-04-10T01:55:09;5.45;;;3.10;;
47715;SDS011;33476;50.984;3.538;2023-04-10T01:57:34;6.63;;;3.53;;
47715;SDS011;33476;50.984;3.538;2023-04-10T02:00:00;8.40;;;3.75;;
47715;SDS011;33476;50.984;3.538;2023-04-10T02:02:32;4.25;;;2.58;;
47715;SDS011;33476;50.984;3.538;2023-04-10T02:04:58;4.75;;;3.08;;
47715;SDS011;33476;50.984;3.538;2023-04-10T02:10:22;16.83;;;3.15;;
47715;SDS011;33476;50.984;3.538;2023-04-10T02:13:00;4.10;;;2.10;;
47715;SDS011;33476;50.984;3.538;2023-04-10T02:15:31;3.25;;;1.75;;
47715;SDS011;33476;50.984;3.538;2023-04-10T02:17:58;3.55;;;1.92;;
47715;SDS011;33476;50.984;3.538;2023-04-10T02:20:24;4.53;;;2.00;;
47715;SDS011;33476;50.984;3.538;2023-04-10T02:22:50;3.20;;;2.05;;
47715;SDS011;33476;50.984;3.538;2023-04-10T02:25:17;3.80;;;2.30;;
47715;SDS011;33476;50.984;3.538;2023-04-10T02:27:43;3.60;;;2.22;;
47715;SDS011;33476;50.984;3.538;2023-04-10T02:30:08;6.60;;;2.47;;
47715;SDS011;33476;50.984;3.538;2023-04-10T02:32:34;4.75;;;2.20;;
47715;SDS011;33476;50.984;3.538;2023-04-10T02:35:00;3.17;;;1.98;;
47715;SDS011;33476;50.984;3.538;2023-04-10T02:37:26;3.45;;;2.20;;
47715;SDS011;33476;50.984;3.538;2023-04-10T02:39:52;3.53;;;1.80;;
47715;SDS011;33476;50.984;3.538;2023-04-10T02:42:19;3.97;;;2.25;;
47715;SDS011;33476;50.984;3.538;2023-04-10T02:44:44;4.57;;;2.17;;
47715;SDS011;33476;50.984;3.538;2023-04-10T02:47:11;2.58;;;1.92;;
47715;SDS011;33476;50.984;3.538;2023-04-10T02:49:36;3.88;;;2.17;;
47715;SDS011;33476;50.984;3.538;2023-04-10T02:52:01;3.72;;;2.03;;
47715;SDS011;33476;50.984;3.538;2023-04-10T02:54:27;3.53;;;1.88;;
47715;SDS011;33476;50.984;3.538;2023-04-10T02:56:52;4.32;;;2.40;;
47715;SDS011;33476;50.984;3.538;2023-04-10T02:59:17;3.00;;;1.98;;
47715;SDS011;33476;50.984;3.538;2023-04-10T03:01:44;4.07;;;2.28;;
47715;SDS011;33476;50.984;3.538;2023-04-10T03:04:10;3.20;;;2.33;;
47715;SDS011;33476;50.984;3.538;2023-04-10T03:06:36;2.95;;;2.05;;
47715;SDS011;33476;50.984;3.538;2023-04-10T03:09:01;3.50;;;2.20;;
47715;SDS011;33476;50.984;3.538;2023-04-10T03:11:27;3.83;;;2.47;;
47715;SDS011;33476;50.984;3.538;2023-04-10T03:13:52;5.13;;;2.22;;
47715;SDS011;33476;50.984;3.538;2023-04-10T03:16:17;3.40;;;2.22;;
47715;SDS011;33476;50.984;3.538;2023-04-10T03:18:43;3.92;;;1.90;;
47715;SDS011;33476;50.984;3.538;2023-04-10T03:21:09;4.35;;;2.47;;
47715;SDS011;33476;50.984;3.538;2023-04-10T03:23:35;3.00;;;1.80;;
47715;SDS011;33476;50.984;3.538;2023-04-10T03:26:01;4.78;;;2.13;;
47715;SDS011;33476;50.984;3.538;2023-04-10T03:28:26;3.47;;;2.22;;
47715;SDS011;33476;50.984;3.538;2023-04-10T03:30:51;9.57;;;2.25;;
47715;SDS011;33476;50.984;3.538;2023-04-10T03:33:17;3.28;;;2.00;;
47715;SDS011;33476;50.984;3.538;2023-04-10T03:35:44;3.95;;;1.90;;
47715;SDS011;33476;50.984;3.538;2023-04-10T03:38:10;2.95;;;2.08;;
47715;SDS011;33476;50.984;3.538;2023-04-10T03:40:35;4.32;;;1.88;;
47715;SDS011;33476;50.984;3.538;2023-04-10T03:43:00;2.40;;;1.90;;
47715;SDS011;33476;50.984;3.538;2023-04-10T03:45:26;3.42;;;1.70;;
47715;SDS011;33476;50.984;3.538;2023-04-10T03:47:51;3.67;;;2.00;;
47715;SDS011;33476;50.984;3.538;2023-04-10T03:50:17;4.28;;;1.92;;
47715;SDS011;33476;50.984;3.538;2023-04-10T03:52:43;3.47;;;2.20;;
47715;SDS011;33476;50.984;3.538;2023-04-10T03:55:08;3.83;;;2.25;;
47715;SDS011;33476;50.984;3.538;2023-04-10T03:57:33;3.20;;;2.03;;
47715;SDS011;33476;50.984;3.538;2023-04-10T03:59:59;3.63;;;1.80;;
47715;SDS011;33476;50.984;3.538;2023-04-10T04:02:24;3.28;;;1.90;;
47715;SDS011;33476;50.984;3.538;2023-04-10T04:04:49;2.30;;;1.80;;
47715;SDS011;33476;50.984;3.538;2023-04-10T04:07:15;2.95;;;1.80;;
47715;SDS011;33476;50.984;3.538;2023-04-10T04:09:40;3.80;;;1.80;;
47715;SDS011;33476;50.984;3.538;2023-04-10T04:12:06;3.42;;;1.92;;
47715;SDS011;33476;50.984;3.538;2023-04-10T04:14:32;3.30;;;1.77;;
47715;SDS011;33476;50.984;3.538;2023-04-10T04:16:57;3.65;;;1.95;;
47715;SDS011;33476;50.984;3.538;2023-04-10T04:19:22;4.05;;;2.22;;
47715;SDS011;33476;50.984;3.538;2023-04-10T04:21:48;2.30;;;1.90;;
47715;SDS011;33476;50.984;3.538;2023-04-10T04:24:13;2.88;;;2.00;;
47715;SDS011;33476;50.984;3.538;2023-04-10T04:26:38;2.88;;;2.10;;
47715;SDS011;33476;50.984;3.538;2023-04-10T04:29:04;3.00;;;1.35;;
47715;SDS011;33476;50.984;3.538;2023-04-10T04:31:30;3.08;;;1.88;;
47715;SDS011;33476;50.984;3.538;2023-04-10T04:33:56;3.97;;;2.15;;
47715;SDS011;33476;50.984;3.538;2023-04-10T04:36:22;2.90;;;1.67;;
47715;SDS011;33476;50.984;3.538;2023-04-10T04:38:47;3.17;;;2.05;;
47715;SDS011;33476;50.984;3.538;2023-04-10T04:41:13;2.70;;;1.80;;
47715;SDS011;33476;50.984;3.538;2023-04-10T04:43:39;3.22;;;2.28;;
47715;SDS011;33476;50.984;3.538;2023-04-10T04:46:05;3.60;;;2.17;;
47715;SDS011;33476;50.984;3.538;2023-04-10T04:48:30;2.80;;;1.90;;
47715;SDS011;33476;50.984;3.538;2023-04-10T04:50:55;4.65;;;2.25;;
47715;SDS011;33476;50.984;3.538;2023-04-10T04:53:21;3.88;;;2.40;;
47715;SDS011;33476;50.984;3.538;2023-04-10T04:55:46;3.35;;;2.22;;
47715;SDS011;33476;50.984;3.538;2023-04-10T04:58:12;6.13;;;2.42;;
47715;SDS011;33476;50.984;3.538;2023-04-10T05:00:37;5.20;;;2.13;;
47715;SDS011;33476;50.984;3.538;2023-04-10T05:03:02;7.95;;;2.55;;
47715;SDS011;33476;50.984;3.538;2023-04-10T05:05:28;3.63;;;2.40;;
47715;SDS011;33476;50.984;3.538;2023-04-10T05:07:53;3.42;;;2.10;;
47715;SDS011;33476;50.984;3.538;2023-04-10T05:10:19;4.50;;;2.75;;
47715;SDS011;33476;50.984;3.538;2023-04-10T05:12:44;2.85;;;2.13;;
47715;SDS011;33476;50.984;3.538;2023-04-10T05:15:09;3.55;;;2.45;;
47715;SDS011;33476;50.984;3.538;2023-04-10T05:17:35;7.60;;;2.25;;
47715;SDS011;33476;50.984;3.538;2023-04-10T05:20:00;5.65;;;2.55;;
47715;SDS011;33476;50.984;3.538;2023-04-10T05:22:25;3.40;;;2.50;;
47715;SDS011;33476;50.984;3.538;2023-04-10T05:24:52;4.22;;;2.83;;
47715;SDS011;33476;50.984;3.538;2023-04-10T05:27:19;3.55;;;2.53;;
47715;SDS011;33476;50.984;3.538;2023-04-10T05:29:45;3.20;;;2.03;;
47715;SDS011;33476;50.984;3.538;2023-04-10T05:32:10;4.93;;;2.58;;
47715;SDS011;33476;50.984;3.538;2023-04-10T05:34:36;3.05;;;2.28;;
47715;SDS011;33476;50.984;3.538;2023-04-10T05:37:01;3.03;;;2.08;;
47715;SDS011;33476;50.984;3.538;2023-04-10T05:39:26;3.65;;;2.40;;
47715;SDS011;33476;50.984;3.538;2023-04-10T05:41:51;3.20;;;2.15;;
47715;SDS011;33476;50.984;3.538;2023-04-10T05:44:17;4.63;;;2.60;;
47715;SDS011;33476;50.984;3.538;2023-04-10T05:46:42;3.95;;;2.05;;
47715;SDS011;33476;50.984;3.538;2023-04-10T05:49:07;3.05;;;2.40;;
47715;SDS011;33476;50.984;3.538;2023-04-10T05:51:33;4.10;;;2.53;;
47715;SDS011;33476;50.984;3.538;2023-04-10T05:53:58;4.13;;;2.10;;
47715;SDS011;33476;50.984;3.538;2023-04-10T05:56:23;3.17;;;2.47;;
47715;SDS011;33476;50.984;3.538;2023-04-10T05:58:49;3.50;;;2.58;;
47715;SDS011;33476;50.984;3.538;2023-04-10T06:01:14;3.60;;;2.45;;
47715;SDS011;33476;50.984;3.538;2023-04-10T06:03:40;2.72;;;1.90;;
47715;SDS011;33476;50.984;3.538;2023-04-10T06:06:06;2.80;;;1.90;;
47715;SDS011;33476;50.984;3.538;2023-04-10T06:08:31;4.13;;;2.88;;
47715;SDS011;33476;50.984;3.538;2023-04-10T06:10:58;4.95;;;2.38;;
47715;SDS011;33476;50.984;3.538;2023-04-10T06:13:24;4.28;;;2.30;;
47715;SDS011;33476;50.984;3.538;2023-04-10T06:15:51;4.07;;;2.30;;
47715;SDS011;33476;50.984;3.538;2023-04-10T06:18:16;4.53;;;2.15;;
47715;SDS011;33476;50.984;3.538;2023-04-10T06:20:42;3.63;;;2.40;;
47715;SDS011;33476;50.984;3.538;2023-04-10T06:23:07;3.63;;;1.90;;
47715;SDS011;33476;50.984;3.538;2023-04-10T06:25:32;5.20;;;2.30;;
47715;SDS011;33476;50.984;3.538;2023-04-10T06:27:58;4.40;;;2.80;;
47715;SDS011;33476;50.984;3.538;2023-04-10T06:30:23;6.57;;;2.47;;
47715;SDS011;33476;50.984;3.538;2023-04-10T06:32:48;4.85;;;2.20;;
47715;SDS011;33476;50.984;3.538;2023-04-10T06:35:14;5.78;;;2.58;;
47715;SDS011;33476;50.984;3.538;2023-04-10T06:37:39;4.60;;;2.40;;
47715;SDS011;33476;50.984;3.538;2023-04-10T06:42:31;4.25;;;2.35;;
47715;SDS011;33476;50.984;3.538;2023-04-10T06:44:57;8.20;;;2.13;;
47715;SDS011;33476;50.984;3.538;2023-04-10T06:47:22;3.42;;;1.95;;
47715;SDS011;33476;50.984;3.538;2023-04-10T06:49:48;3.45;;;2.40;;
47715;SDS011;33476;50.984;3.538;2023-04-10T06:52:13;4.63;;;1.92;;
47715;SDS011;33476;50.984;3.538;2023-04-10T06:54:38;4.00;;;2.63;;
47715;SDS011;33476;50.984;3.538;2023-04-10T06:57:04;5.22;;;2.85;;
47715;SDS011;33476;50.984;3.538;2023-04-10T06:59:30;2.90;;;1.88;;
47715;SDS011;33476;50.984;3.538;2023-04-10T07:01:57;3.72;;;2.20;;
47715;SDS011;33476;50.984;3.538;2023-04-10T07:04:23;3.15;;;2.03;;
47715;SDS011;33476;50.984;3.538;2023-04-10T07:06:48;3.95;;;2.30;;
47715;SDS011;33476;50.984;3.538;2023-04-10T07:09:13;2.72;;;1.73;;
47715;SDS011;33476;50.984;3.538;2023-04-10T07:11:39;4.47;;;2.28;;
47715;SDS011;33476;50.984;3.538;2023-04-10T07:14:04;3.40;;;2.10;;
47715;SDS011;33476;50.984;3.538;2023-04-10T07:16:29;3.58;;;2.17;;
47715;SDS011;33476;50.984;3.538;2023-04-10T07:18:55;2.50;;;1.65;;
47715;SDS011;33476;50.984;3.538;2023-04-10T07:21:20;3.33;;;1.90;;
47715;SDS011;33476;50.984;3.538;2023-04-10T07:23:45;2.80;;;1.90;;
47715;SDS011;33476;50.984;3.538;2023-04-10T07:26:11;3.67;;;2.15;;
47715;SDS011;33476;50.984;3.538;2023-04-10T07:28:36;3.05;;;1.92;;
47715;SDS011;33476;50.984;3.538;2023-04-10T07:31:02;4.13;;;2.50;;
47715;SDS011;33476;50.984;3.538;2023-04-10T07:33:27;5.72;;;2.15;;
47715;SDS011;33476;50.984;3.538;2023-04-10T07:35:53;3.58;;;2.00;;
47715;SDS011;33476;50.984;3.538;2023-04-10T07:38:18;5.65;;;2.20;;
47715;SDS011;33476;50.984;3.538;2023-04-10T07:40:45;2.55;;;1.83;;
47715;SDS011;33476;50.984;3.538;2023-04-10T07:43:10;3.22;;;1.92;;
47715;SDS011;33476;50.984;3.538;2023-04-10T07:45:35;3.35;;;2.05;;
47715;SDS011;33476;50.984;3.538;2023-04-10T07:48:01;4.30;;;2.03;;
47715;SDS011;33476;50.984;3.538;2023-04-10T07:50:26;3.65;;;1.77;;
47715;SDS011;33476;50.984;3.538;2023-04-10T07:52:52;3.15;;;1.95;;
47715;SDS011;33476;50.984;3.538;2023-04-10T07:55:17;3.10;;;1.85;;
47715;SDS011;33476;50.984;3.538;2023-04-10T07:57:42;2.78;;;1.90;;
47715;SDS011;33476;50.984;3.538;2023-04-10T08:00:08;4.10;;;2.10;;
47715;SDS011;33476;50.984;3.538;2023-04-10T08:02:34;2.90;;;1.90;;
47715;SDS011;33476;50.984;3.538;2023-04-10T08:04:59;2.47;;;1.70;;
47715;SDS011;33476;50.984;3.538;2023-04-10T08:07:25;4.00;;;1.52;;
47715;SDS011;33476;50.984;3.538;2023-04-10T08:09:50;2.50;;;1.67;;
47715;SDS011;33476;50.984;3.538;2023-04-10T08:12:16;2.95;;;1.70;;
47715;SDS011;33476;50.984;3.538;2023-04-10T08:14:41;3.80;;;1.73;;
47715;SDS011;33476;50.984;3.538;2023-04-10T08:17:08;3.38;;;1.70;;
47715;SDS011;33476;50.984;3.538;2023-04-10T08:19:38;4.90;;;1.65;;
47715;SDS011;33476;50.984;3.538;2023-04-10T08:22:04;3.60;;;1.80;;
47715;SDS011;33476;50.984;3.538;2023-04-10T08:24:30;4.82;;;1.58;;
47715;SDS011;33476;50.984;3.538;2023-04-10T08:26:55;3.78;;;1.80;;
47715;SDS011;33476;50.984;3.538;2023-04-10T08:29:20;2.97;;;1.80;;
47715;SDS011;33476;50.984;3.538;2023-04-10T08:31:46;1.92;;;1.50;;
47715;SDS011;33476;50.984;3.538;2023-04-10T08:34:11;20.23;;;1.98;;
47715;SDS011;33476;50.984;3.538;2023-04-10T08:36:36;3.72;;;1.52;;
47715;SDS011;33476;50.984;3.538;2023-04-10T08:39:02;2.03;;;1.40;;
47715;SDS011;33476;50.984;3.538;2023-04-10T08:41:27;3.78;;;1.48;;
47715;SDS011;33476;50.984;3.538;2023-04-10T08:43:52;2.88;;;1.58;;
47715;SDS011;33476;50.984;3.538;2023-04-10T08:46:18;2.40;;;1.58;;
47715;SDS011;33476;50.984;3.538;2023-04-10T08:48:51;2.67;;;1.55;;
47715;SDS011;33476;50.984;3.538;2023-04-10T08:51:20;2.10;;;1.48;;
47715;SDS011;33476;50.984;3.538;2023-04-10T08:56:16;2.55;;;1.67;;
47715;SDS011;33476;50.984;3.538;2023-04-10T08:58:42;4.70;;;1.73;;
47715;SDS011;33476;50.984;3.538;2023-04-10T09:01:09;3.47;;;1.70;;
47715;SDS011;33476;50.984;3.538;2023-04-10T09:03:35;4.03;;;1.77;;
47715;SDS011;33476;50.984;3.538;2023-04-10T09:06:01;2.70;;;1.77;;
47715;SDS011;33476;50.984;3.538;2023-04-10T09:08:28;5.25;;;1.77;;
47715;SDS011;33476;50.984;3.538;2023-04-10T09:10:53;2.75;;;1.65;;
47715;SDS011;33476;50.984;3.538;2023-04-10T09:13:41;2.20;;;1.40;;
47715;SDS011;33476;50.984;3.538;2023-04-10T09:16:06;2.97;;;1.63;;
47715;SDS011;33476;50.984;3.538;2023-04-10T09:18:45;10.30;;;1.80;;
47715;SDS011;33476;50.984;3.538;2023-04-10T09:21:13;3.63;;;1.60;;
47715;SDS011;33476;50.984;3.538;2023-04-10T09:23:41;2.90;;;1.75;;
47715;SDS011;33476;50.984;3.538;2023-04-10T09:26:21;3.97;;;1.88;;
47715;SDS011;33476;50.984;3.538;2023-04-10T09:29:21;3.95;;;2.22;;
47715;SDS011;33476;50.984;3.538;2023-04-10T09:31:41;2.90;;;1.50;;
47715;SDS011;33476;50.984;3.538;2023-04-10T09:34:14;3.95;;;1.80;;
47715;SDS011;33476;50.984;3.538;2023-04-10T09:36:42;5.35;;;1.98;;
47715;SDS011;33476;50.984;3.538;2023-04-10T09:39:10;9.57;;;2.08;;
47715;SDS011;33476;50.984;3.538;2023-04-10T09:41:48;4.65;;;1.60;;
47715;SDS011;33476;50.984;3.538;2023-04-10T09:44:27;4.70;;;1.67;;
47715;SDS011;33476;50.984;3.538;2023-04-10T09:46:57;4.93;;;2.20;;
47715;SDS011;33476;50.984;3.538;2023-04-10T09:49:23;2.90;;;1.95;;
47715;SDS011;33476;50.984;3.538;2023-04-10T09:51:49;4.07;;;2.33;;
47715;SDS011;33476;50.984;3.538;2023-04-10T09:54:14;4.20;;;1.63;;
47715;SDS011;33476;50.984;3.538;2023-04-10T09:56:40;2.45;;;1.83;;
47715;SDS011;33476;50.984;3.538;2023-04-10T09:59:09;4.17;;;1.60;;
47715;SDS011;33476;50.984;3.538;2023-04-10T10:01:38;2.83;;;1.60;;
47715;SDS011;33476;50.984;3.538;2023-04-10T10:04:03;3.33;;;1.75;;
47715;SDS011;33476;50.984;3.538;2023-04-10T10:06:29;2.47;;;1.52;;
47715;SDS011;33476;50.984;3.538;2023-04-10T10:08:58;2.58;;;1.63;;
47715;SDS011;33476;50.984;3.538;2023-04-10T10:11:27;1.88;;;1.10;;
47715;SDS011;33476;50.984;3.538;2023-04-10T10:13:56;3.47;;;1.38;;
47715;SDS011;33476;50.984;3.538;2023-04-10T10:16:38;3.63;;;1.55;;
47715;SDS011;33476;50.984;3.538;2023-04-10T10:19:12;3.95;;;1.23;;
47715;SDS011;33476;50.984;3.538;2023-04-10T10:21:44;2.00;;;1.17;;
47715;SDS011;33476;50.984;3.538;2023-04-10T10:24:10;2.83;;;1.33;;
47715;SDS011;33476;50.984;3.538;2023-04-10T10:26:38;3.28;;;1.50;;
47715;SDS011;33476;50.984;3.538;2023-04-10T10:29:05;2.15;;;1.10;;
47715;SDS011;33476;50.984;3.538;2023-04-10T10:31:34;1.50;;;1.02;;
47715;SDS011;33476;50.984;3.538;2023-04-10T10:34:01;2.47;;;1.25;;
47715;SDS011;33476;50.984;3.538;2023-04-10T10:36:29;1.60;;;0.93;;
47715;SDS011;33476;50.984;3.538;2023-04-10T10:47:17;2.92;;;1.30;;
47715;SDS011;33476;50.984;3.538;2023-04-10T10:49:51;1.73;;;1.20;;
47715;SDS011;33476;50.984;3.538;2023-04-10T10:57:54;2.70;;;1.23;;
47715;SDS011;33476;50.984;3.538;2023-04-10T11:00:21;4.25;;;1.30;;
47715;SDS011;33476;50.984;3.538;2023-04-10T11:13:33;2.08;;;1.40;;
47715;SDS011;33476;50.984;3.538;2023-04-10T11:16:01;3.42;;;1.50;;
47715;SDS011;33476;50.984;3.538;2023-04-10T11:28:57;2.13;;;1.42;;
47715;SDS011;33476;50.984;3.538;2023-04-10T11:31:22;4.10;;;1.08;;
47715;SDS011;33476;50.984;3.538;2023-04-10T11:33:52;3.97;;;1.27;;
47715;SDS011;33476;50.984;3.538;2023-04-10T11:36:25;2.60;;;1.60;;
47715;SDS011;33476;50.984;3.538;2023-04-10T11:41:39;1.98;;;1.48;;
47715;SDS011;33476;50.984;3.538;2023-04-10T11:44:07;2.15;;;1.65;;
47715;SDS011;33476;50.984;3.538;2023-04-10T11:46:53;3.28;;;2.15;;
47715;SDS011;33476;50.984;3.538;2023-04-10T11:51:47;5.25;;;2.03;;
47715;SDS011;33476;50.984;3.538;2023-04-10T11:54:14;2.60;;;1.90;;
47715;SDS011;33476;50.984;3.538;2023-04-10T11:56:42;2.60;;;1.63;;
47715;SDS011;33476;50.984;3.538;2023-04-10T11:59:09;4.60;;;1.90;;
47715;SDS011;33476;50.984;3.538;2023-04-10T12:01:37;4.95;;;1.88;;
47715;SDS011;33476;50.984;3.538;2023-04-10T12:04:03;4.72;;;2.38;;
47715;SDS011;33476;50.984;3.538;2023-04-10T12:06:36;5.22;;;1.77;;
47715;SDS011;33476;50.984;3.538;2023-04-10T12:09:11;4.22;;;2.00;;
47715;SDS011;33476;50.984;3.538;2023-04-10T12:11:38;2.72;;;1.90;;
47715;SDS011;33476;50.984;3.538;2023-04-10T12:14:03;4.80;;;2.15;;
47715;SDS011;33476;50.984;3.538;2023-04-10T12:16:28;4.60;;;2.45;;
47715;SDS011;33476;50.984;3.538;2023-04-10T12:18:56;2.85;;;2.30;;
47715;SDS011;33476;50.984;3.538;2023-04-10T12:21:21;3.95;;;2.30;;
47715;SDS011;33476;50.984;3.538;2023-04-10T12:23:47;3.47;;;2.00;;
47715;SDS011;33476;50.984;3.538;2023-04-10T12:26:13;3.50;;;1.83;;
47715;SDS011;33476;50.984;3.538;2023-04-10T12:28:41;3.88;;;1.75;;
47715;SDS011;33476;50.984;3.538;2023-04-10T12:31:14;6.43;;;2.08;;
47715;SDS011;33476;50.984;3.538;2023-04-10T12:33:42;4.80;;;2.50;;
47715;SDS011;33476;50.984;3.538;2023-04-10T12:36:21;4.03;;;1.98;;
47715;SDS011;33476;50.984;3.538;2023-04-10T12:38:47;3.67;;;1.85;;
47715;SDS011;33476;50.984;3.538;2023-04-10T12:41:13;3.33;;;2.22;;
47715;SDS011;33476;50.984;3.538;2023-04-10T12:43:48;2.83;;;2.20;;
47715;SDS011;33476;50.984;3.538;2023-04-10T12:46:24;2.78;;;1.85;;
47715;SDS011;33476;50.984;3.538;2023-04-10T12:48:52;4.18;;;2.00;;
47715;SDS011;33476;50.984;3.538;2023-04-10T12:51:18;2.53;;;2.08;;
47715;SDS011;33476;50.984;3.538;2023-04-10T12:53:43;3.35;;;2.03;;
47715;SDS011;33476;50.984;3.538;2023-04-10T12:56:10;3.47;;;2.08;;
47715;SDS011;33476;50.984;3.538;2023-04-10T12:58:37;2.45;;;1.65;;
47715;SDS011;33476;50.984;3.538;2023-04-10T13:01:04;2.65;;;1.98;;
47715;SDS011;33476;50.984;3.538;2023-04-10T13:03:32;3.53;;;2.00;;
47715;SDS011;33476;50.984;3.538;2023-04-10T13:05:58;3.50;;;2.20;;
47715;SDS011;33476;50.984;3.538;2023-04-10T13:08:23;3.83;;;2.28;;
47715;SDS011;33476;50.984;3.538;2023-04-10T13:10:49;3.42;;;1.70;;
47715;SDS011;33476;50.984;3.538;2023-04-10T13:13:15;2.30;;;1.77;;
47715;SDS011;33476;50.984;3.538;2023-04-10T13:15:41;2.80;;;1.80;;
47715;SDS011;33476;50.984;3.538;2023-04-10T13:18:09;4.40;;;1.75;;
47715;SDS011;33476;50.984;3.538;2023-04-10T13:20:39;4.57;;;1.70;;
47715;SDS011;33476;50.984;3.538;2023-04-10T13:23:05;4.30;;;1.65;;
47715;SDS011;33476;50.984;3.538;2023-04-10T13:25:32;2.30;;;1.75;;
47715;SDS011;33476;50.984;3.538;2023-04-10T13:28:00;3.05;;;1.77;;
47715;SDS011;33476;50.984;3.538;2023-04-10T13:30:26;2.47;;;1.55;;
47715;SDS011;33476;50.984;3.538;2023-04-10T13:32:52;3.20;;;1.27;;
47715;SDS011;33476;50.984;3.538;2023-04-10T13:35:17;2.83;;;1.50;;
47715;SDS011;33476;50.984;3.538;2023-04-10T13:37:42;2.30;;;1.52;;
47715;SDS011;33476;50.984;3.538;2023-04-10T13:40:08;1.77;;;1.33;;
47715;SDS011;33476;50.984;3.538;2023-04-10T13:42:34;2.10;;;1.38;;
47715;SDS011;33476;50.984;3.538;2023-04-10T13:44:59;2.53;;;1.60;;
47715;SDS011;33476;50.984;3.538;2023-04-10T13:47:25;3.38;;;1.50;;
47715;SDS011;33476;50.984;3.538;2023-04-10T13:49:50;2.17;;;1.70;;
47715;SDS011;33476;50.984;3.538;2023-04-10T13:52:16;4.45;;;2.15;;
47715;SDS011;33476;50.984;3.538;2023-04-10T13:54:41;3.90;;;1.80;;
47715;SDS011;33476;50.984;3.538;2023-04-10T13:57:06;3.45;;;2.25;;
47715;SDS011;33476;50.984;3.538;2023-04-10T13:59:32;2.70;;;2.17;;
47715;SDS011;33476;50.984;3.538;2023-04-10T14:01:57;3.15;;;2.20;;
47715;SDS011;33476;50.984;3.538;2023-04-10T14:04:22;3.03;;;2.22;;
47715;SDS011;33476;50.984;3.538;2023-04-10T14:06:48;2.95;;;2.10;;
47715;SDS011;33476;50.984;3.538;2023-04-10T14:09:14;3.45;;;2.35;;
47715;SDS011;33476;50.984;3.538;2023-04-10T14:11:39;4.63;;;2.65;;
47715;SDS011;33476;50.984;3.538;2023-04-10T14:14:05;3.83;;;2.45;;
47715;SDS011;33476;50.984;3.538;2023-04-10T14:16:30;4.28;;;2.47;;
47715;SDS011;33476;50.984;3.538;2023-04-10T14:18:56;4.88;;;2.67;;
47715;SDS011;33476;50.984;3.538;2023-04-10T14:21:21;4.88;;;2.90;;
47715;SDS011;33476;50.984;3.538;2023-04-10T14:23:46;3.90;;;2.38;;
47715;SDS011;33476;50.984;3.538;2023-04-10T14:26:12;4.13;;;2.47;;
47715;SDS011;33476;50.984;3.538;2023-04-10T14:28:37;3.67;;;2.75;;
47715;SDS011;33476;50.984;3.538;2023-04-10T14:31:03;4.63;;;2.58;;
47715;SDS011;33476;50.984;3.538;2023-04-10T14:33:29;6.53;;;2.42;;
47715;SDS011;33476;50.984;3.538;2023-04-10T14:35:54;2.80;;;1.95;;
47715;SDS011;33476;50.984;3.538;2023-04-10T14:38:19;3.85;;;2.50;;
47715;SDS011;33476;50.984;3.538;2023-04-10T14:40:45;7.03;;;2.72;;
47715;SDS011;33476;50.984;3.538;2023-04-10T14:43:13;4.20;;;2.67;;
47715;SDS011;33476;50.984;3.538;2023-04-10T14:45:39;4.03;;;2.53;;
47715;SDS011;33476;50.984;3.538;2023-04-10T14:48:05;5.28;;;3.13;;
47715;SDS011;33476;50.984;3.538;2023-04-10T14:50:30;3.53;;;2.55;;
47715;SDS011;33476;50.984;3.538;2023-04-10T14:52:56;3.50;;;2.42;;
47715;SDS011;33476;50.984;3.538;2023-04-10T14:55:24;4.07;;;2.90;;
47715;SDS011;33476;50.984;3.538;2023-04-10T14:57:49;3.88;;;2.50;;
47715;SDS011;33476;50.984;3.538;2023-04-10T15:00:15;6.43;;;2.72;;
47715;SDS011;33476;50.984;3.538;2023-04-10T15:02:40;4.85;;;2.70;;
47715;SDS011;33476;50.984;3.538;2023-04-10T15:05:06;3.83;;;2.42;;
47715;SDS011;33476;50.984;3.538;2023-04-10T15:07:31;4.15;;;2.67;;
47715;SDS011;33476;50.984;3.538;2023-04-10T15:09:57;3.30;;;2.33;;
47715;SDS011;33476;50.984;3.538;2023-04-10T15:12:23;2.78;;;1.20;;
47715;SDS011;33476;50.984;3.538;2023-04-10T15:14:49;3.40;;;1.20;;
47715;SDS011;33476;50.984;3.538;2023-04-10T15:17:19;3.83;;;1.13;;
47715;SDS011;33476;50.984;3.538;2023-04-10T15:19:46;5.13;;;0.82;;
47715;SDS011;33476;50.984;3.538;2023-04-10T15:22:11;2.92;;;0.90;;
47715;SDS011;33476;50.984;3.538;2023-04-10T15:24:36;2.08;;;0.70;;
47715;SDS011;33476;50.984;3.538;2023-04-10T15:27:02;5.60;;;1.17;;
47715;SDS011;33476;50.984;3.538;2023-04-10T15:29:27;1.17;;;0.52;;
47715;SDS011;33476;50.984;3.538;2023-04-10T15:31:52;2.50;;;0.63;;
47715;SDS011;33476;50.984;3.538;2023-04-10T15:34:18;2.20;;;0.90;;
47715;SDS011;33476;50.984;3.538;2023-04-10T15:36:43;1.73;;;0.85;;
47715;SDS011;33476;50.984;3.538;2023-04-10T15:39:09;1.55;;;0.70;;
47715;SDS011;33476;50.984;3.538;2023-04-10T15:41:34;3.28;;;0.80;;
47715;SDS011;33476;50.984;3.538;2023-04-10T15:44:00;2.17;;;1.13;;